Big Sky, Montana
Current Conditions -  °F | °C
As of 6:53 PM on Wednesday 17 Dec 2014 (Local Time) from KLVM Reporting Station
Clear Clear  
Wind Chill: 22°   Ceiling: Unl
Heat Index: 31°   Visibility: 10mi
Dew Point: 20°   Wind: 12mph
Humidity: 64%   Direction: 240°WSW
Pressure: 29.89"   Gusts: NA
Location:  45.29°N, 111.3°W
Report Text: KLVM 180153Z AUTO 24010KT 10SM CLR M01/M07 A2989 RMK AO2 SLP154 T10061067
Loading
Personal Weather Stations






























Interactive Weather Map New forecast layout! Learn more

10-Day Weather Forecast

Advertisements
Track Severe Weather on mobile